Time;durP1;ratioP1;P1;durP2;ratioP2;P2;SDS_P1;SDS_P2;PMS_P1;PMS_P2;Temp;Humidity;BMP_temperature;BMP_pressure;BME280_temperature;BME280_humidity;BME280_pressure;Samples;Min_cycle;Max_cycle;Signal;HPM_P1;HPM_P2
2022/09/10 00:02:17;;;;;;;21.70;16.40;;;;;;;20.03;61.79;98770.73;238753;1191;139783;-57
2022/09/10 00:07:20;;;;;;;21.10;16.00;;;;;;;19.99;61.75;98768.59;238842;1190;139707;-57
2022/09/10 00:12:23;;;;;;;21.10;15.80;;;;;;;19.96;61.68;98776.55;238854;1190;139668;-56
2022/09/10 00:17:26;;;;;;;21.10;15.80;;;;;;;19.91;61.73;98770.45;238883;1190;139950;-57
2022/09/10 00:22:29;;;;;;;22.00;16.90;;;;;;;19.89;61.87;98770.91;238745;1191;140510;-57
2022/09/10 00:27:34;;;;;;;20.60;16.70;;;;;;;19.89;61.89;98770.61;238743;1190;139571;-57
2022/09/10 00:32:38;;;;;;;23.60;18.00;;;;;;;19.82;61.87;98766.08;238820;1190;140377;-57
2022/09/10 00:37:41;;;;;;;23.20;17.80;;;;;;;19.81;62.06;98768.05;238847;1190;139607;-58
2022/09/10 00:42:44;;;;;;;23.90;18.60;;;;;;;19.79;62.13;98770.45;238870;1190;139579;-57
2022/09/10 00:47:49;;;;;;;23.80;17.70;;;;;;;19.73;62.03;98759.33;238882;1190;140029;-58
2022/09/10 00:53:01;;;;;;;21.70;17.10;;;;;;;19.72;62.25;98766.67;238913;1190;139746;-58
2022/09/10 00:58:08;;;;;;;24.60;19.20;;;;;;;19.75;62.36;98758.75;238819;1190;139899;-58
2022/09/10 01:03:15;;;;;;;24.60;19.30;;;;;;;19.76;62.39;98757.95;238700;1191;140393;-58
2022/09/10 01:08:18;;;;;;;30.70;19.60;;;;;;;19.71;62.42;98759.52;238230;1191;141482;-57
2022/09/10 01:13:27;;;;;;;23.30;19.10;;;;;;;19.69;62.45;98756.90;238375;1191;138945;-57
2022/09/10 01:19:09;;;;;;;27.80;18.60;;;;;;;19.60;62.45;98754.25;238574;1191;139328;-56
2022/09/10 01:24:28;;;;;;;23.40;17.60;;;;;;;19.53;62.61;98755.66;238390;1191;139865;-57
2022/09/10 01:29:40;;;;;;;24.50;18.50;;;;;;;19.49;62.60;98759.84;238408;1191;140416;-58
2022/09/10 01:34:59;;;;;;;25.00;19.20;;;;;;;19.55;62.88;98768.76;238741;1191;139658;-56
2022/09/10 01:40:03;;;;;;;26.50;19.60;;;;;;;19.51;62.95;98764.28;238789;1191;139649;-58
2022/09/10 01:45:13;;;;;;;27.10;20.20;;;;;;;19.51;62.98;98752.17;238595;1192;139270;-57
2022/09/10 01:50:40;;;;;;;29.70;20.60;;;;;;;19.51;62.91;98764.45;238624;1191;139092;-56
2022/09/10 01:55:49;;;;;;;26.20;19.90;;;;;;;19.45;62.93;98756.98;238713;1191;139277;-57
2022/09/10 02:01:20;;;;;;;23.60;18.20;;;;;;;19.41;62.92;98751.14;238502;1191;140399;-55
2022/09/10 02:06:28;;;;;;;24.60;19.70;;;;;;;19.41;63.17;98753.05;238224;1192;139626;-57
2022/09/10 02:11:52;;;;;;;29.20;21.50;;;;;;;19.40;63.18;98749.41;238652;1190;142557;-57
2022/09/10 02:17:19;;;;;;;;;;;;;;;19.39;63.16;98743.53;238478;1190;139004;-58
2022/09/10 02:22:23;;;;;;;32.30;22.40;;;;;;;19.35;63.28;98741.61;238511;1192;125316;-58
2022/09/10 02:27:28;;;;;;;29.90;22.50;;;;;;;19.30;63.34;98738.17;238633;1191;139465;-58
2022/09/10 02:32:32;;;;;;;28.90;21.30;;;;;;;19.30;63.32;98729.39;238751;1190;139714;-57
2022/09/10 02:37:36;;;;;;;26.70;21.10;;;;;;;19.34;63.63;98718.90;238792;1191;139974;-57
2022/09/10 02:42:39;;;;;;;39.50;22.60;;;;;;;19.33;63.48;98716.80;238574;1191;138938;-58
2022/09/10 02:47:42;;;;;;;29.10;22.70;;;;;;;19.30;63.55;98714.16;238497;1191;139707;-58
2022/09/10 02:52:45;;;;;;;33.90;24.60;;;;;;;19.24;63.46;98704.95;238669;1190;138852;-57
2022/09/10 02:57:48;;;;;;;39.00;25.50;;;;;;;19.19;63.60;98696.88;238547;1192;144999;-57
2022/09/10 03:02:55;;;;;;;34.00;25.30;;;;;;;19.15;63.45;98699.64;238620;1191;139929;-56
2022/09/10 03:08:06;;;;;;;36.10;23.80;;;;;;;19.15;63.74;98688.79;238193;1192;139546;-58
2022/09/10 03:13:09;;;;;;;37.80;26.60;;;;;;;19.21;63.94;98703.20;238711;1190;139101;-58
2022/09/10 03:18:14;;;;;;;44.20;29.80;;;;;;;19.24;63.94;98705.77;238849;1190;139398;-55
2022/09/10 03:23:17;;;;;;;45.40;27.90;;;;;;;19.22;63.96;98710.59;238805;1191;139552;-57
2022/09/10 03:28:23;;;;;;;48.90;30.30;;;;;;;19.13;63.72;98717.42;238637;1192;139045;-58
2022/09/10 03:33:27;;;;;;;58.20;36.30;;;;;;;19.08;63.70;98712.41;238950;1190;139647;-56
2022/09/10 03:38:31;;;;;;;61.10;38.90;;;;;;;19.03;63.70;98714.54;238678;1191;139504;-57
2022/09/10 03:43:34;;;;;;;59.40;37.60;;;;;;;19.01;63.90;98706.66;238325;1191;138787;-58
2022/09/10 03:48:42;;;;;;;53.50;34.40;;;;;;;18.98;64.16;98699.19;238130;1192;139209;-58
2022/09/10 03:53:46;;;;;;;53.50;35.10;;;;;;;18.90;64.08;98701.65;238718;1191;139099;-56
2022/09/10 03:58:51;;;;;;;;;;;;;;;18.87;64.36;98708.04;238510;1191;138856;-58
2022/09/10 04:03:55;;;;;;;51.40;32.00;;;;;;;18.91;64.53;98710.60;238827;1191;126376;-58
2022/09/10 04:09:01;;;;;;;45.80;29.80;;;;;;;18.93;64.57;98705.83;238637;1191;140420;-58
2022/09/10 04:14:04;;;;;;;38.90;26.50;;;;;;;18.94;64.76;98694.73;238519;1190;140373;-57
2022/09/10 04:19:11;;;;;;;34.50;24.10;;;;;;;18.96;64.91;98685.63;238511;1191;139709;-57
2022/09/10 04:24:14;;;;;;;36.50;25.20;;;;;;;18.92;64.78;98695.67;238519;1191;139156;-57
2022/09/10 04:29:18;;;;;;;32.90;22.00;;;;;;;18.90;64.95;98694.23;238394;1191;139603;-57
2022/09/10 04:34:21;;;;;;;28.90;19.50;;;;;;;18.90;65.09;98694.27;238634;1191;139717;-58
2022/09/10 04:39:24;;;;;;;23.90;17.40;;;;;;;18.98;65.34;98695.69;238756;1190;139225;-57
2022/09/10 04:44:28;;;;;;;25.90;17.30;;;;;;;18.99;65.12;98687.84;238397;1192;139054;-58
2022/09/10 04:49:32;;;;;;;21.70;15.80;;;;;;;18.97;65.11;98677.41;238479;1191;139319;-57
2022/09/10 04:54:36;;;;;;;22.70;16.10;;;;;;;18.93;65.14;98677.64;238569;1190;140041;-56
2022/09/10 04:59:40;;;;;;;21.20;16.30;;;;;;;18.88;65.28;98675.41;238757;1190;140324;-58
2022/09/10 05:04:43;;;;;;;23.60;16.00;;;;;;;18.87;65.26;98669.70;238357;1192;140014;-57
2022/09/10 05:09:46;;;;;;;22.00;16.60;;;;;;;18.91;65.51;98670.83;238488;1192;139675;-57
2022/09/10 05:14:51;;;;;;;23.10;17.40;;;;;;;18.93;65.56;98667.37;238474;1190;140346;-58
2022/09/10 05:19:55;;;;;;;23.30;17.70;;;;;;;18.92;65.53;98670.86;238602;1191;139152;-57
2022/09/10 05:24:57;;;;;;;22.30;17.40;;;;;;;18.87;65.52;98668.70;238575;1192;139288;-57
2022/09/10 05:30:02;;;;;;;24.00;17.00;;;;;;;18.82;65.45;98668.66;238521;1192;139452;-57
2022/09/10 05:35:06;;;;;;;22.60;16.90;;;;;;;18.81;65.65;98666.57;238514;1192;139889;-57
2022/09/10 05:40:15;;;;;;;26.80;18.90;;;;;;;18.88;65.81;98670.80;238733;1192;141710;-58
2022/09/10 05:45:19;;;;;;;27.90;18.60;;;;;;;18.91;65.88;98674.94;238632;1190;138992;-58
2022/09/10 05:50:22;;;;;;;25.60;18.30;;;;;;;18.91;65.86;98665.90;238562;1190;138948;-57
2022/09/10 05:55:30;;;;;;;;;;;;;;;18.93;65.92;98662.00;238468;1191;138807;-58
2022/09/10 06:00:35;;;;;;;28.20;18.00;;;;;;;18.92;65.88;98661.87;238608;1191;126807;-57
2022/09/10 06:05:38;;;;;;;29.50;19.40;;;;;;;18.97;65.98;98655.14;238548;1191;139854;-58
2022/09/10 06:10:42;;;;;;;28.20;19.80;;;;;;;18.99;65.96;98652.54;238578;1191;139077;-57
2022/09/10 06:15:45;;;;;;;28.90;19.80;;;;;;;18.98;65.89;98662.23;238737;1190;139448;-58
2022/09/10 06:21:00;;;;;;;27.90;19.50;;;;;;;18.93;65.97;98657.34;238744;1190;139941;-57
2022/09/10 06:26:07;;;;;;;26.50;18.90;;;;;;;18.96;65.95;98657.90;238352;1192;140414;-58
2022/09/10 06:31:15;;;;;;;34.80;20.60;;;;;;;18.99;65.97;98652.40;238339;1191;139472;-59
2022/09/10 06:36:19;;;;;;;28.20;20.00;;;;;;;19.01;66.14;98652.68;238714;1190;140196;-56
2022/09/10 06:41:24;;;;;;;33.10;22.00;;;;;;;19.03;66.26;98656.41;238524;1191;142254;-59
2022/09/10 06:46:39;;;;;;;27.00;18.90;;;;;;;19.02;66.18;98670.01;238382;1192;139714;-57
2022/09/10 06:52:02;;;;;;;30.40;19.90;;;;;;;19.04;66.32;98672.16;238591;1192;140829;-58
2022/09/10 06:57:06;;;;;;;28.30;19.30;;;;;;;19.07;66.13;98668.98;238711;1190;140515;-58
2022/09/10 07:02:09;;;;;;;28.20;20.10;;;;;;;19.08;66.31;98670.36;238601;1192;139934;-58
2022/09/10 07:07:13;;;;;;;28.80;19.50;;;;;;;19.09;66.33;98672.36;238259;1191;139024;-58
2022/09/10 07:12:18;;;;;;;24.70;17.90;;;;;;;19.09;66.32;98671.86;238514;1191;140386;-57
2022/09/10 07:17:21;;;;;;;24.80;17.70;;;;;;;19.12;66.33;98668.25;238585;1190;139593;-58
2022/09/10 07:22:24;;;;;;;28.30;19.20;;;;;;;19.19;66.49;98661.50;238655;1190;139780;-58
2022/09/10 07:27:27;;;;;;;25.50;18.40;;;;;;;19.26;66.61;98656.59;238495;1192;139835;-56
2022/09/10 07:32:32;;;;;;;23.20;15.90;;;;;;;19.30;66.46;98659.02;238378;1192;139464;-57
2022/09/10 07:37:43;;;;;;;20.90;13.90;;;;;;;19.31;66.39;98665.92;238544;1190;139100;-56
2022/09/10 07:42:46;;;;;;;18.20;13.60;;;;;;;19.38;66.34;98667.41;238770;1190;139418;-57
2022/09/10 07:47:49;;;;;;;21.20;15.10;;;;;;;19.42;66.14;98666.79;238308;1191;139415;-57
2022/09/10 07:52:53;;;;;;;20.10;14.80;;;;;;;19.38;66.15;98659.90;238358;1192;139468;-58
2022/09/10 07:57:58;;;;;;;;;;;;;;;19.34;66.13;98667.05;238721;1190;139455;-58
2022/09/10 08:03:04;;;;;;;23.40;13.50;;;;;;;19.25;66.01;98670.00;238584;1190;125933;-57
2022/09/10 08:08:09;;;;;;;18.40;13.00;;;;;;;19.20;66.19;98671.48;238444;1191;140930;-58
2022/09/10 08:13:12;;;;;;;19.00;13.20;;;;;;;19.19;66.27;98672.42;238397;1192;141496;-58
2022/09/10 08:18:16;;;;;;;19.30;13.90;;;;;;;19.23;66.47;98673.67;238471;1190;139902;-57
2022/09/10 08:23:19;;;;;;;19.00;13.50;;;;;;;19.25;66.58;98675.23;238695;1190;139191;-58
2022/09/10 08:28:26;;;;;;;17.90;12.60;;;;;;;19.30;66.60;98671.76;238575;1191;139413;-57
2022/09/10 08:33:34;;;;;;;15.80;12.20;;;;;;;19.33;66.78;98669.71;238557;1192;139702;-57
2022/09/10 08:38:39;;;;;;;16.00;11.70;;;;;;;19.30;66.56;98672.73;238283;1190;139538;-55
2022/09/10 08:43:49;;;;;;;16.90;11.60;;;;;;;19.29;66.55;98673.31;238747;1190;140276;-57
2022/09/10 08:49:27;;;;;;;16.00;12.10;;;;;;;19.38;66.92;98669.51;238469;1191;139626;-57
2022/09/10 08:54:36;;;;;;;16.50;11.20;;;;;;;19.47;66.80;98674.23;238411;1192;139356;-57
2022/09/10 08:59:44;;;;;;;13.40;10.20;;;;;;;19.44;66.72;98665.63;238714;1190;139981;-57
2022/09/10 09:04:57;;;;;;;15.20;10.20;;;;;;;19.44;66.74;98666.94;238724;1190;139625;-57
2022/09/10 09:10:03;;;;;;;11.30;8.30;;;;;;;19.49;66.63;98671.27;238634;1192;140380;-58
2022/09/10 09:15:19;;;;;;;10.30;7.80;;;;;;;19.47;66.52;98668.94;238553;1191;139802;-56
2022/09/10 09:20:43;;;;;;;7.50;5.70;;;;;;;19.48;66.58;98673.54;238422;1190;162265;-58
2022/09/10 09:25:58;;;;;;;6.80;5.10;;;;;;;19.50;66.63;98673.48;238582;1190;139047;-57
2022/09/10 09:31:09;;;;;;;4.40;4.00;;;;;;;19.62;66.83;98670.83;238219;1192;139029;-57
2022/09/10 09:36:18;;;;;;;6.50;3.90;;;;;;;19.81;66.90;98672.91;238193;1192;139371;-58
2022/09/10 09:41:31;;;;;;;4.70;3.70;;;;;;;19.97;66.83;98671.44;238584;1190;140903;-59
2022/09/10 09:46:34;;;;;;;3.70;3.30;;;;;;;20.02;66.49;98665.19;238586;1190;138675;-58
2022/09/10 09:51:39;;;;;;;3.90;3.30;;;;;;;19.98;66.12;98667.70;238452;1191;141407;-56
2022/09/10 09:56:48;;;;;;;4.10;3.70;;;;;;;19.91;65.94;98665.12;238377;1191;139557;-56
2022/09/10 10:01:53;;;;;;;4.50;3.10;;;;;;;19.82;66.10;98661.84;238664;1191;139181;-58
2022/09/10 10:06:58;;;;;;;4.50;3.00;;;;;;;19.78;65.92;98654.74;238514;1190;141041;-58
2022/09/10 10:12:04;;;;;;;3.70;3.20;;;;;;;19.82;66.26;98649.59;238583;1191;139133;-58
2022/09/10 10:17:22;;;;;;;4.40;3.50;;;;;;;19.93;66.29;98649.22;238414;1191;138686;-57
2022/09/10 10:22:28;;;;;;;4.20;3.70;;;;;;;20.01;66.38;98641.48;238717;1190;139458;-57
2022/09/10 10:27:35;;;;;;;3.80;3.30;;;;;;;20.03;66.27;98636.01;238701;1191;139349;-60
2022/09/10 10:33:00;;;;;;;3.60;3.20;;;;;;;20.09;66.30;98637.41;238434;1192;139081;-58
2022/09/10 10:38:30;;;;;;;5.50;3.50;;;;;;;20.14;66.14;98638.05;238634;1190;140465;-57
2022/09/10 10:43:52;;;;;;;3.90;3.00;;;;;;;20.22;66.20;98635.61;238735;1190;140336;-57
2022/09/10 10:49:32;;;;;;;3.30;3.00;;;;;;;20.28;66.12;98642.34;238582;1190;138791;-58
2022/09/10 10:54:46;;;;;;;4.60;2.90;;;;;;;20.32;66.18;98645.67;238395;1191;138620;-57
2022/09/10 11:00:12;;;;;;;4.50;2.40;;;;;;;20.45;66.00;98636.85;238601;1190;140043;-57
2022/09/10 11:05:33;;;;;;;4.70;2.90;;;;;;;20.58;65.92;98637.83;238703;1190;139192;-58
2022/09/10 11:10:48;;;;;;;4.50;2.60;;;;;;;20.68;65.54;98640.34;238591;1190;138560;-58
2022/09/10 11:16:04;;;;;;;3.20;2.70;;;;;;;20.68;65.38;98640.67;238724;1190;138836;-58
2022/09/10 11:21:19;;;;;;;4.30;2.80;;;;;;;20.67;65.34;98639.02;238531;1190;138832;-58
2022/09/10 11:26:27;;;;;;;2.70;2.40;;;;;;;20.66;65.25;98633.48;238361;1192;138552;-57
2022/09/10 11:31:35;;;;;;;2.20;1.60;;;;;;;20.78;65.23;98632.56;238514;1190;139485;-57
2022/09/10 11:36:48;;;;;;;2.60;1.90;;;;;;;20.90;64.80;98631.54;238694;1190;139247;-58
2022/09/10 11:41:53;;;;;;;2.50;1.60;;;;;;;20.91;64.59;98623.14;238559;1191;138980;-58
2022/09/10 11:47:07;;;;;;;1.60;1.30;;;;;;;20.84;64.22;98617.27;238466;1192;138873;-58
2022/09/10 11:52:10;;;;;;;1.20;1.10;;;;;;;20.73;63.95;98611.30;238779;1190;138780;-58
2022/09/10 11:57:36;;;;;;;1.80;1.00;;;;;;;20.65;63.88;98608.39;238721;1190;141615;-57
2022/09/10 12:03:03;;;;;;;4.80;1.00;;;;;;;20.55;63.77;98602.48;238397;1190;139376;-58
2022/09/10 12:08:16;;;;;;;1.60;1.10;;;;;;;20.45;63.67;98603.00;238533;1191;139039;-57
2022/09/10 12:13:20;;;;;;;1.20;1.10;;;;;;;20.44;63.93;98598.40;238683;1190;139108;-58
2022/09/10 12:18:32;;;;;;;1.80;1.10;;;;;;;20.44;63.87;98595.41;238681;1190;138934;-57
2022/09/10 12:23:38;;;;;;;1.40;1.20;;;;;;;20.38;64.06;98588.33;238426;1191;138546;-58
2022/09/10 12:28:41;;;;;;;1.50;1.30;;;;;;;20.33;64.17;98585.52;238388;1191;138870;-57
2022/09/10 12:33:44;;;;;;;1.80;1.40;;;;;;;20.39;64.30;98579.92;238692;1190;139129;-58
2022/09/10 12:38:53;;;;;;;1.90;1.10;;;;;;;20.44;64.16;98568.86;238680;1191;139104;-58
2022/09/10 12:43:58;;;;;;;1.40;1.10;;;;;;;20.52;64.14;98564.77;238598;1192;138807;-58
2022/09/10 12:49:01;;;;;;;1.60;1.40;;;;;;;20.72;64.52;98554.82;238476;1191;138862;-57
2022/09/10 12:54:28;;;;;;;2.20;1.20;;;;;;;21.29;65.19;98550.54;238642;1190;139933;-57
2022/09/10 12:59:40;;;;;;;1.30;1.20;;;;;;;22.12;64.76;98550.80;238691;1190;139370;-57
2022/09/10 13:04:46;;;;;;;1.80;1.40;;;;;;;22.30;63.32;98541.83;238637;1192;139205;-58
2022/09/10 13:10:13;;;;;;;2.60;1.40;;;;;;;22.51;63.11;98535.52;238501;1192;140055;-57
2022/09/10 13:15:28;;;;;;;3.50;1.60;;;;;;;22.35;62.02;98545.59;238762;1190;139639;-58
2022/09/10 13:20:33;;;;;;;1.90;1.40;;;;;;;22.05;61.66;98542.73;238611;1191;139389;-58
2022/09/10 13:25:40;;;;;;;2.10;1.40;;;;;;;21.64;61.49;98542.48;238572;1190;139236;-58
2022/09/10 13:30:43;;;;;;;4.40;1.80;;;;;;;21.33;61.87;98538.88;238609;1191;139527;-58
2022/09/10 13:36:24;;;;;;;2.90;1.50;;;;;;;21.09;62.11;98530.23;238632;1190;138884;-57
2022/09/10 13:41:49;;;;;;;3.90;1.70;;;;;;;20.91;62.64;98533.20;238501;1190;138855;-57
2022/09/10 13:46:56;;;;;;;1.90;1.60;;;;;;;21.26;63.82;98533.03;238461;1192;138895;-58
2022/09/10 13:52:03;;;;;;;2.70;1.80;;;;;;;21.28;63.03;98536.14;238656;1191;139083;-57
2022/09/10 13:57:17;;;;;;;2.60;1.80;;;;;;;21.25;63.08;98535.27;238397;1190;139192;-56
2022/09/10 14:02:38;;;;;;;4.20;1.60;;;;;;;21.15;63.13;98536.20;238676;1190;139131;-56
2022/09/10 14:07:42;;;;;;;2.10;1.40;;;;;;;21.13;63.15;98536.48;238488;1191;139238;-57
2022/09/10 14:12:48;;;;;;;3.00;1.40;;;;;;;21.07;63.13;98540.92;238440;1190;139345;-57
2022/09/10 14:17:57;;;;;;;7.10;2.70;;;;;;;21.02;63.25;98539.98;238626;1190;139054;-56
2022/09/10 14:23:03;;;;;;;4.80;1.70;;;;;;;21.08;63.31;98529.46;238676;1190;138806;-57
2022/09/10 14:28:15;;;;;;;5.30;2.00;;;;;;;21.12;63.28;98521.39;238755;1191;138685;-58
2022/09/10 14:33:30;;;;;;;6.90;2.80;;;;;;;21.09;63.06;98517.61;238496;1191;139601;-58
2022/09/10 14:38:36;;;;;;;4.20;1.70;;;;;;;21.08;63.31;98512.71;238615;1191;140055;-58
2022/09/10 14:43:40;;;;;;;2.70;1.60;;;;;;;21.01;62.90;98508.89;238645;1190;139788;-58
2022/09/10 14:48:59;;;;;;;2.50;1.70;;;;;;;20.98;62.83;98512.82;238483;1190;138675;-57
2022/09/10 14:54:02;;;;;;;2.50;1.70;;;;;;;21.00;62.70;98513.63;238623;1190;139497;-57
2022/09/10 14:59:30;;;;;;;2.20;1.60;;;;;;;20.94;62.54;98509.17;238587;1191;138757;-58
2022/09/10 15:04:33;;;;;;;2.00;1.40;;;;;;;20.90;62.78;98508.96;238568;1190;139063;-58
2022/09/10 15:09:36;;;;;;;2.20;1.10;;;;;;;20.88;62.82;98509.58;238778;1190;138620;-58
2022/09/10 15:14:39;;;;;;;2.20;1.60;;;;;;;20.92;62.91;98506.25;238666;1190;140164;-56
2022/09/10 15:19:43;;;;;;;3.90;2.10;;;;;;;20.99;63.01;98512.58;238544;1191;139359;-57
2022/09/10 15:24:48;;;;;;;2.80;2.40;;;;;;;21.04;63.01;98511.27;238570;1190;139222;-57
2022/09/10 15:30:13;;;;;;;4.30;2.50;;;;;;;21.03;62.83;98503.84;238678;1190;139511;-57
2022/09/10 15:35:16;;;;;;;4.30;2.90;;;;;;;20.95;62.61;98503.29;238666;1190;139218;-56
2022/09/10 15:40:20;;;;;;;4.70;3.40;;;;;;;20.85;62.66;98495.77;238644;1191;139572;-59
2022/09/10 15:45:26;;;;;;;5.50;3.70;;;;;;;20.78;62.67;98499.27;238590;1190;139179;-58
2022/09/10 15:50:30;;;;;;;4.20;3.40;;;;;;;20.78;62.86;98498.00;238760;1190;139512;-58
2022/09/10 15:55:36;;;;;;;6.10;3.40;;;;;;;20.79;63.03;98500.09;238593;1190;139084;-57
2022/09/10 16:00:39;;;;;;;4.00;3.30;;;;;;;20.86;63.24;98507.30;238759;1191;139124;-58
2022/09/10 16:05:42;;;;;;;5.00;2.90;;;;;;;20.84;62.98;98508.33;238600;1191;138705;-57
2022/09/10 16:10:45;;;;;;;2.90;2.60;;;;;;;20.77;63.09;98514.23;238274;1190;138672;-56
2022/09/10 16:16:02;;;;;;;4.20;2.50;;;;;;;20.71;62.97;98516.55;238827;1191;139330;-55
2022/09/10 16:21:11;;;;;;;3.80;2.70;;;;;;;20.61;62.81;98518.05;238801;1190;139370;-56
2022/09/10 16:26:19;;;;;;;3.10;2.40;;;;;;;20.59;63.42;98520.73;238382;1192;139752;-55
2022/09/10 16:31:27;;;;;;;5.50;2.90;;;;;;;20.64;63.57;98522.68;238709;1191;139070;-56
2022/09/10 16:36:32;;;;;;;3.90;2.60;;;;;;;20.67;63.51;98524.36;238605;1190;138904;-58
2022/09/10 16:41:35;;;;;;;3.80;2.80;;;;;;;20.61;63.09;98521.13;238665;1190;139917;-58
2022/09/10 16:46:38;;;;;;;3.40;2.60;;;;;;;20.46;62.83;98511.92;238558;1190;138773;-58
2022/09/10 16:51:42;;;;;;;3.00;2.70;;;;;;;20.34;62.98;98509.61;238763;1191;139222;-58
2022/09/10 16:56:49;;;;;;;3.60;2.30;;;;;;;20.29;62.99;98506.52;238768;1190;138859;-58
2022/09/10 17:01:52;;;;;;;3.10;2.20;;;;;;;20.21;63.02;98505.27;238768;1190;139007;-58
2022/09/10 17:06:56;;;;;;;3.60;2.30;;;;;;;20.18;62.95;98505.45;238644;1190;142096;-57
2022/09/10 17:11:59;;;;;;;5.70;3.00;;;;;;;20.12;62.97;98500.41;238457;1191;140032;-56
2022/09/10 17:17:02;;;;;;;4.20;3.30;;;;;;;20.09;63.26;98498.02;238634;1191;139450;-57
2022/09/10 17:22:05;;;;;;;5.60;3.00;;;;;;;20.01;63.38;98495.02;238865;1190;138794;-55
2022/09/10 17:27:10;;;;;;;7.20;4.10;;;;;;;19.97;63.41;98488.48;238621;1191;138967;-55
2022/09/10 17:32:13;;;;;;;5.10;2.90;;;;;;;19.92;63.61;98489.02;238608;1191;141062;-56
2022/09/10 17:37:17;;;;;;;6.90;3.40;;;;;;;19.92;63.92;98490.88;238681;1190;139611;-57
2022/09/10 17:42:20;;;;;;;7.20;3.70;;;;;;;19.94;64.09;98494.73;238698;1190;139908;-57
2022/09/10 17:47:23;;;;;;;4.90;3.20;;;;;;;20.00;64.85;98523.40;238756;1190;139045;-57
2022/09/10 17:52:26;;;;;;;2.30;1.50;;;;;;;20.04;64.29;98540.41;238471;1192;139423;-58
2022/09/10 17:57:29;;;;;;;3.70;1.00;;;;;;;19.82;63.39;98542.14;238489;1190;138926;-58
2022/09/10 18:02:32;;;;;;;2.60;1.00;;;;;;;19.49;62.32;98550.83;238574;1190;138883;-57
2022/09/10 18:07:35;;;;;;;2.00;1.10;;;;;;;19.06;61.81;98547.15;238647;1190;138417;-58
2022/09/10 18:12:38;;;;;;;2.30;1.20;;;;;;;18.66;61.93;98551.73;238525;1192;138872;-57
2022/09/10 18:17:41;;;;;;;4.30;1.20;;;;;;;18.34;62.29;98552.45;238669;1191;139753;-58
2022/09/10 18:22:44;;;;;;;4.60;1.50;;;;;;;18.16;62.60;98549.38;238657;1192;142888;-57
2022/09/10 18:27:49;;;;;;;4.60;1.50;;;;;;;18.02;63.12;98545.85;238749;1191;138794;-57
2022/09/10 18:32:52;;;;;;;5.20;1.90;;;;;;;17.90;63.45;98538.26;238562;1191;139747;-57
2022/09/10 18:37:56;;;;;;;4.90;2.20;;;;;;;17.80;63.87;98532.83;238400;1192;139315;-56
2022/09/10 18:42:59;;;;;;;4.60;2.00;;;;;;;17.69;64.06;98527.48;238728;1190;138856;-58
2022/09/10 18:48:02;;;;;;;3.70;1.70;;;;;;;17.63;64.19;98517.36;238757;1191;139947;-58
2022/09/10 18:53:05;;;;;;;4.60;2.10;;;;;;;17.64;64.81;98522.99;238686;1191;139725;-58
2022/09/10 18:58:08;;;;;;;5.70;3.10;;;;;;;17.70;64.91;98521.00;238706;1191;138822;-58
2022/09/10 19:03:11;;;;;;;3.50;2.30;;;;;;;17.69;64.70;98523.06;238781;1190;139751;-58
2022/09/10 19:08:16;;;;;;;4.80;2.40;;;;;;;17.67;64.60;98521.14;238462;1191;139305;-59
2022/09/10 19:13:19;;;;;;;;;;;;;;;17.63;64.66;98527.95;238534;1191;138524;-58
2022/09/10 19:18:22;;;;;;;3.40;2.00;;;;;;;17.60;64.57;98527.94;238670;1191;125324;-58
2022/09/10 19:23:25;;;;;;;3.70;2.00;;;;;;;17.54;64.37;98530.48;238675;1190;139607;-57
2022/09/10 19:28:33;;;;;;;3.40;2.00;;;;;;;17.52;64.52;98528.88;238565;1191;139481;-59
2022/09/10 19:33:36;;;;;;;4.90;2.20;;;;;;;17.56;64.74;98526.58;238442;1191;139694;-58
2022/09/10 19:38:40;;;;;;;3.00;2.10;;;;;;;17.55;64.62;98526.41;238563;1191;138976;-57
2022/09/10 19:43:45;;;;;;;4.20;1.90;;;;;;;17.55;64.81;98525.69;238665;1191;140310;-58
2022/09/10 19:48:50;;;;;;;3.00;1.70;;;;;;;17.57;64.67;98524.44;237401;1192;138675;-57
2022/09/10 19:53:55;;;;;;;2.50;1.90;;;;;;;17.54;64.45;98524.44;238318;1192;138652;-58
2022/09/10 19:58:59;;;;;;;7.80;2.30;;;;;;;17.50;64.33;98525.27;238671;1191;138684;-58
2022/09/10 20:04:04;;;;;;;2.90;1.60;;;;;;;17.45;64.30;98529.36;238527;1191;139462;-57
2022/09/10 20:09:08;;;;;;;;;;;;;;;17.42;64.43;98534.02;238305;1190;139789;-57
2022/09/10 20:14:13;;;;;;;4.60;2.00;;;;;;;17.38;64.52;98536.58;238863;1190;125659;-57
2022/09/10 20:19:17;;;;;;;7.80;1.70;;;;;;;17.33;64.82;98537.95;238695;1191;139511;-58
2022/09/10 20:24:21;;;;;;;8.20;3.80;;;;;;;17.23;64.57;98538.94;238325;1191;138350;-58
2022/09/10 20:29:24;;;;;;;4.20;1.80;;;;;;;17.15;64.46;98538.42;238627;1192;139685;-58
2022/09/10 20:34:27;;;;;;;5.20;2.10;;;;;;;17.15;64.53;98536.83;238726;1190;139047;-58
2022/09/10 20:39:30;;;;;;;4.40;2.40;;;;;;;17.20;64.74;98532.60;238867;1190;139192;-58
2022/09/10 20:44:34;;;;;;;4.20;2.30;;;;;;;17.25;64.92;98529.87;238562;1192;138854;-58
2022/09/10 20:49:37;;;;;;;3.60;2.50;;;;;;;17.24;64.55;98532.54;238229;1192;138923;-59
2022/09/10 20:54:40;;;;;;;4.00;2.20;;;;;;;17.19;64.73;98525.28;238734;1190;138914;-59
2022/09/10 20:59:43;;;;;;;3.70;2.80;;;;;;;17.13;64.60;98526.78;238674;1190;138932;-58
2022/09/10 21:04:46;;;;;;;4.20;2.20;;;;;;;17.08;64.65;98528.34;238633;1191;138904;-58
2022/09/10 21:09:49;;;;;;;7.20;2.60;;;;;;;17.10;64.78;98526.78;238492;1191;139557;-58
2022/09/10 21:14:54;;;;;;;4.70;2.90;;;;;;;17.20;65.13;98535.95;238793;1190;140739;-58
2022/09/10 21:19:58;;;;;;;5.60;3.40;;;;;;;17.32;65.11;98537.33;238849;1190;138800;-58
2022/09/10 21:25:01;;;;;;;6.30;3.20;;;;;;;17.36;65.21;98541.45;238565;1191;138731;-58
2022/09/10 21:30:05;;;;;;;7.70;3.50;;;;;;;17.35;64.79;98545.88;238639;1191;139199;-59
2022/09/10 21:35:09;;;;;;;7.80;3.50;;;;;;;17.29;64.86;98547.11;238614;1190;139198;-57
2022/09/10 21:40:12;;;;;;;7.20;3.20;;;;;;;17.22;64.91;98544.36;238912;1190;139395;-58
2022/09/10 21:45:16;;;;;;;8.90;3.30;;;;;;;17.21;65.11;98550.52;238576;1192;140054;-57
2022/09/10 21:50:19;;;;;;;5.50;3.50;;;;;;;17.27;65.34;98546.05;238589;1191;139139;-58
2022/09/10 21:55:22;;;;;;;7.40;3.30;;;;;;;17.28;65.18;98543.98;238692;1190;139132;-56
2022/09/10 22:00:26;;;;;;;5.50;3.30;;;;;;;17.25;65.24;98548.55;238704;1190;139142;-58
2022/09/10 22:05:29;;;;;;;7.40;2.90;;;;;;;17.26;65.53;98552.77;238487;1191;139227;-58
2022/09/10 22:10:32;;;;;;;6.50;2.90;;;;;;;17.25;65.21;98552.33;238516;1191;138952;-57
2022/09/10 22:15:39;;;;;;;5.30;3.00;;;;;;;17.23;65.20;98544.25;238886;1190;139664;-58
2022/09/10 22:20:42;;;;;;;3.50;2.80;;;;;;;17.24;65.22;98549.75;238693;1190;139437;-58
2022/09/10 22:25:45;;;;;;;6.30;3.00;;;;;;;17.19;65.15;98549.15;238498;1192;139065;-58
2022/09/10 22:30:48;;;;;;;7.40;3.10;;;;;;;17.16;65.49;98545.36;238517;1191;140988;-58
2022/09/10 22:35:54;;;;;;;10.70;3.40;;;;;;;17.13;65.34;98547.23;238742;1190;140016;-57
2022/09/10 22:41:01;;;;;;;3.60;2.50;;;;;;;17.09;65.25;98539.23;238776;1190;139032;-58
2022/09/10 22:46:05;;;;;;;3.80;2.50;;;;;;;17.10;65.21;98534.31;238856;1190;140175;-57
2022/09/10 22:51:14;;;;;;;5.10;2.70;;;;;;;17.16;65.42;98530.11;238481;1190;139402;-57
2022/09/10 22:56:20;;;;;;;5.30;2.80;;;;;;;17.13;65.18;98533.10;238677;1190;139685;-57
2022/09/10 23:01:26;;;;;;;3.90;2.60;;;;;;;17.08;65.09;98536.64;238646;1190;139119;-56
2022/09/10 23:06:32;;;;;;;3.40;2.60;;;;;;;16.99;65.20;98536.46;238532;1190;139381;-57
2022/09/10 23:11:36;;;;;;;5.30;2.70;;;;;;;16.91;65.31;98535.98;238622;1191;139065;-57
2022/09/10 23:16:42;;;;;;;6.60;2.90;;;;;;;16.87;65.25;98527.56;238593;1190;139542;-57
2022/09/10 23:21:49;;;;;;;7.20;2.90;;;;;;;16.91;65.49;98533.23;238850;1191;139255;-57